createdAt,value
2023-01-22T00:03:41.204Z,101397.22
2023-01-22T00:07:20.265Z,101396.69
2023-01-22T00:11:05.268Z,101401.44
2023-01-22T00:14:50.600Z,101400.57
2023-01-22T00:18:28.050Z,101402.54
2023-01-22T00:22:13.115Z,101402.23
2023-01-22T00:25:58.330Z,101403.83
2023-01-22T00:29:36.356Z,101403.52
2023-01-22T00:33:21.199Z,101406.66
2023-01-22T00:37:06.258Z,101415.39
2023-01-22T00:40:50.026Z,101424.44
2023-01-22T00:44:35.187Z,101425.20
2023-01-22T00:48:31.933Z,101425.91
2023-01-22T00:52:09.675Z,101426.33
2023-01-22T00:55:43.023Z,101426.66
2023-01-22T00:59:28.108Z,101431.98
2023-01-22T01:03:11.994Z,101433.39
2023-01-22T01:06:52.735Z,101434.94
2023-01-22T01:10:37.696Z,101438.23
2023-01-22T01:14:22.814Z,101440.73
2023-01-22T01:17:56.348Z,101440.73
2023-01-22T01:21:41.441Z,101444.05
2023-01-22T01:25:27.383Z,101442.71
2023-01-22T01:29:04.516Z,101447.09
2023-01-22T01:32:49.473Z,101451.82
2023-01-22T01:36:48.669Z,101460.03
2023-01-22T01:40:35.756Z,101459.40
2023-01-22T01:44:22.836Z,101465.19
2023-01-22T01:48:10.439Z,101463.38
2023-01-22T01:52:01.011Z,101465.77
2023-01-22T01:55:35.612Z,101470.70
2023-01-22T01:58:57.619Z,101472.11
2023-01-22T02:02:42.783Z,101477.58
2023-01-22T02:06:21.875Z,101477.61
2023-01-22T02:09:55.476Z,101477.59
2023-01-22T02:13:40.708Z,101476.58
2023-01-22T02:17:25.829Z,101477.72
2023-01-22T02:21:13.706Z,101476.27
2023-01-22T02:24:58.588Z,101482.86
2023-01-22T02:28:36.340Z,101481.63
2023-01-22T02:32:21.771Z,101479.58
2023-01-22T02:36:06.920Z,101482.30
2023-01-22T02:39:51.882Z,101486.48
2023-01-22T02:43:36.729Z,101480.74
2023-01-22T02:47:21.828Z,101485.08
2023-01-22T02:51:07.268Z,101485.86
2023-01-22T02:54:51.913Z,101480.17
2023-01-22T02:58:19.791Z,101491.98
2023-01-22T03:02:13.796Z,101492.14
2023-01-22T03:05:59.346Z,101498.48
2023-01-22T03:09:44.246Z,101507.31
2023-01-22T03:13:27.745Z,101510.24
2023-01-22T03:17:11.641Z,101520.15
2023-01-22T03:20:55.036Z,101529.77
2023-01-22T03:24:40.574Z,101528.73
2023-01-22T03:28:31.570Z,101531.77
2023-01-22T03:31:56.250Z,101535.23
2023-01-22T03:35:33.995Z,101539.90
2023-01-22T03:39:14.487Z,101534.22
2023-01-22T03:42:48.438Z,101531.74
2023-01-22T03:46:33.586Z,101534.27
2023-01-22T03:50:19.046Z,101541.41
2023-01-22T03:54:04.320Z,101544.17
2023-01-22T03:57:38.329Z,101548.58
2023-01-22T04:01:23.428Z,101549.02
2023-01-22T04:05:01.833Z,101556.52
2023-01-22T04:08:46.955Z,101559.81
2023-01-22T04:12:21.360Z,101561.09
2023-01-22T04:15:49.948Z,101561.34
2023-01-22T04:19:37.707Z,101560.48
2023-01-22T04:23:28.319Z,101559.52
2023-01-22T04:27:02.404Z,101563.16
2023-01-22T04:30:47.666Z,101566.75
2023-01-22T04:34:37.641Z,101578.41
2023-01-22T04:38:23.813Z,101577.89
2023-01-22T04:42:08.726Z,101585.27
2023-01-22T04:45:53.505Z,101588.20
2023-01-22T04:49:38.632Z,101590.11
2023-01-22T04:53:22.253Z,101589.08
2023-01-22T04:57:07.192Z,101593.23
2023-01-22T05:00:52.319Z,101596.77
2023-01-22T05:04:25.913Z,101601.84
2023-01-22T05:08:10.802Z,101600.32
2023-01-22T05:11:55.707Z,101599.00
2023-01-22T05:15:40.566Z,101596.37
2023-01-22T05:19:25.457Z,101597.48
2023-01-22T05:22:52.617Z,101599.60
2023-01-22T05:26:37.355Z,101603.74
2023-01-22T05:30:18.295Z,101611.98
2023-01-22T05:34:03.613Z,101607.39
2023-01-22T05:37:48.475Z,101612.02
2023-01-22T05:41:30.266Z,101615.71
2023-01-22T05:45:15.148Z,101620.45
2023-01-22T05:48:52.508Z,101628.27
2023-01-22T05:52:40.433Z,101632.05
2023-01-22T05:56:25.321Z,101634.43
2023-01-22T06:00:02.862Z,101637.19
2023-01-22T06:03:47.608Z,101647.14
2023-01-22T06:07:32.507Z,101644.83
2023-01-22T06:11:17.508Z,101645.00
2023-01-22T06:15:02.461Z,101645.80
2023-01-22T06:18:41.159Z,101651.70
2023-01-22T06:22:25.942Z,101654.82
2023-01-22T06:26:10.976Z,101655.23
2023-01-22T06:29:56.103Z,101658.44
2023-01-22T06:33:40.972Z,101659.16
2023-01-22T06:37:25.635Z,101661.85
2023-01-22T06:41:03.332Z,101665.84
2023-01-22T06:44:41.151Z,101669.08
2023-01-22T06:48:26.039Z,101676.13
2023-01-22T06:52:03.711Z,101679.02
2023-01-22T06:55:49.005Z,101686.69
2023-01-22T06:59:35.275Z,101689.90
2023-01-22T07:03:21.010Z,101695.58
2023-01-22T07:07:05.766Z,101699.42
2023-01-22T07:10:35.792Z,101707.64
2023-01-22T07:14:32.361Z,101713.34
2023-01-22T07:18:21.490Z,101721.70
2023-01-22T07:22:06.792Z,101724.68
2023-01-22T07:25:51.910Z,101722.77
2023-01-22T07:29:37.069Z,101724.19
2023-01-22T07:33:22.209Z,101725.11
2023-01-22T07:37:07.553Z,101731.52
2023-01-22T07:40:52.483Z,101739.63
2023-01-22T07:44:37.342Z,101743.48
2023-01-22T07:48:22.218Z,101744.99
2023-01-22T07:52:06.996Z,101755.21
2023-01-22T07:55:51.728Z,101759.13
2023-01-22T07:59:36.414Z,101763.91
2023-01-22T08:03:09.949Z,101764.94
2023-01-22T08:06:54.767Z,101771.53
2023-01-22T08:10:29.053Z,101774.52
2023-01-22T08:14:13.881Z,101776.77
2023-01-22T08:17:51.917Z,101779.16
2023-01-22T08:21:36.829Z,101772.14
2023-01-22T08:25:21.437Z,101771.83
2023-01-22T08:29:07.700Z,101774.78
2023-01-22T08:32:53.092Z,101778.31
2023-01-22T08:36:40.794Z,101783.55
2023-01-22T08:40:25.644Z,101783.66
2023-01-22T08:44:11.271Z,101789.10
2023-01-22T08:47:56.271Z,101793.78
2023-01-22T08:51:41.417Z,101794.23
2023-01-22T08:55:26.359Z,101800.52
2023-01-22T08:59:10.933Z,101804.73
2023-01-22T09:02:55.938Z,101808.35
2023-01-22T09:06:40.968Z,101813.52
2023-01-22T09:10:25.937Z,101819.30
2023-01-22T09:14:11.041Z,101823.70
2023-01-22T09:17:56.316Z,101824.36
2023-01-22T09:21:42.024Z,101827.66
2023-01-22T09:25:27.017Z,101822.13
2023-01-22T09:29:01.076Z,101826.37
2023-01-22T09:32:35.617Z,101829.91
2023-01-22T09:36:20.774Z,101828.23
2023-01-22T09:40:05.684Z,101826.41
2023-01-22T09:43:56.468Z,101827.59
2023-01-22T09:47:41.437Z,101829.04
2023-01-22T09:51:26.303Z,101827.04
2023-01-22T09:55:11.490Z,101830.39
2023-01-22T09:58:35.860Z,101832.85
2023-01-22T10:02:20.835Z,101839.47
2023-01-22T10:05:58.861Z,101845.59
2023-01-22T10:09:36.428Z,101840.14
2023-01-22T10:13:21.593Z,101837.58
2023-01-22T10:16:55.056Z,101834.91
2023-01-22T10:20:42.539Z,101834.01
2023-01-22T10:24:25.993Z,101828.42
2023-01-22T10:28:16.368Z,101829.70
2023-01-22T10:32:07.147Z,101826.40
2023-01-22T10:36:00.870Z,101821.98
2023-01-22T10:39:45.929Z,101825.52
2023-01-22T10:43:42.869Z,101821.05
2023-01-22T10:47:20.706Z,101818.11
2023-01-22T10:51:08.949Z,101819.24
2023-01-22T10:54:59.922Z,101824.06
2023-01-22T10:58:29.951Z,101819.09
2023-01-22T11:02:30.508Z,101813.73
2023-01-22T11:06:18.646Z,101813.50
2023-01-22T11:10:06.390Z,101814.54
2023-01-22T11:13:57.502Z,101816.30
2023-01-22T11:17:53.060Z,101816.33
2023-01-22T11:21:37.982Z,101815.10
2023-01-22T11:25:25.744Z,101813.16
2023-01-22T11:29:19.410Z,101812.87
2023-01-22T11:33:05.353Z,101816.52
2023-01-22T11:37:02.250Z,101816.60
2023-01-22T11:41:10.599Z,101812.30
2023-01-22T11:44:58.058Z,101801.95
2023-01-22T11:48:48.710Z,101798.94
2023-01-22T11:52:31.865Z,101803.43
2023-01-22T11:56:34.596Z,101799.73
2023-01-22T12:00:22.326Z,101795.55
2023-01-22T12:04:15.980Z,101800.54
2023-01-22T12:08:25.361Z,101796.30
2023-01-22T12:12:10.120Z,101803.38
2023-01-22T12:16:04.067Z,101801.44
2023-01-22T12:20:00.855Z,101808.90
2023-01-22T12:23:51.308Z,101805.11
2023-01-22T12:27:42.134Z,101808.96
2023-01-22T12:31:38.821Z,101810.92
2023-01-22T12:35:12.430Z,101813.09
2023-01-22T12:38:59.904Z,101814.98
2023-01-22T12:42:50.759Z,101818.17
2023-01-22T12:46:47.672Z,101819.27
2023-01-22T12:50:32.634Z,101822.71
2023-01-22T12:54:23.417Z,101826.67
2023-01-22T12:58:09.403Z,101826.59
2023-01-22T13:01:51.847Z,101822.62
2023-01-22T13:05:36.776Z,101825.33
2023-01-22T13:09:21.643Z,101828.86
2023-01-22T13:13:01.814Z,101829.70
2023-01-22T13:17:01.569Z,101826.92
2023-01-22T13:20:46.520Z,101826.87
2023-01-22T13:24:31.479Z,101826.61
2023-01-22T13:28:16.622Z,101829.23
2023-01-22T13:32:01.683Z,101822.45
2023-01-22T13:35:46.822Z,101823.05
2023-01-22T13:39:20.497Z,101829.32
2023-01-22T13:43:05.476Z,101835.26
2023-01-22T13:46:51.410Z,101836.02
2023-01-22T13:50:34.823Z,101840.47
2023-01-22T13:54:19.837Z,101846.48
2023-01-22T13:58:04.831Z,101850.80
2023-01-22T14:01:49.932Z,101854.12
2023-01-22T14:05:34.892Z,101858.75
2023-01-22T14:09:25.697Z,101865.48
2023-01-22T14:13:25.357Z,101868.33
2023-01-22T14:17:10.403Z,101868.09
2023-01-22T14:20:55.647Z,101873.48
2023-01-22T14:24:40.416Z,101877.39
2023-01-22T14:28:28.298Z,101884.14
2023-01-22T14:32:13.038Z,101896.09
2023-01-22T14:35:57.958Z,101904.23
2023-01-22T14:39:43.016Z,101908.35
2023-01-22T14:43:27.999Z,101907.83
2023-01-22T14:47:05.406Z,101908.88
2023-01-22T14:50:50.645Z,101910.60
2023-01-22T14:54:35.681Z,101906.64
2023-01-22T14:58:20.606Z,101901.33
2023-01-22T15:02:14.849Z,101904.98
2023-01-22T15:05:52.654Z,101906.78
2023-01-22T15:09:37.643Z,101915.63
2023-01-22T15:13:22.553Z,101925.27
2023-01-22T15:17:07.624Z,101927.27
2023-01-22T15:20:45.455Z,101925.84
2023-01-22T15:24:30.523Z,101931.01
2023-01-22T15:28:15.550Z,101930.98
2023-01-22T15:32:03.179Z,101935.30
2023-01-22T15:35:47.940Z,101935.30
2023-01-22T15:39:32.869Z,101941.52
2023-01-22T15:43:19.990Z,101945.44
2023-01-22T15:46:49.306Z,101947.23
2023-01-22T15:50:26.796Z,101950.30
2023-01-22T15:54:11.922Z,101946.95
2023-01-22T15:57:56.768Z,101947.60
2023-01-22T16:01:34.396Z,101952.42
2023-01-22T16:05:19.315Z,101960.99
2023-01-22T16:09:04.164Z,101964.59
2023-01-22T16:12:41.883Z,101964.34
2023-01-22T16:16:26.758Z,101966.35
2023-01-22T16:20:00.203Z,101976.52
2023-01-22T16:23:44.858Z,101978.20
2023-01-22T16:27:29.753Z,101979.70
2023-01-22T16:31:03.938Z,101981.10
2023-01-22T16:34:41.931Z,101981.39
2023-01-22T16:38:26.931Z,101985.73
2023-01-22T16:41:49.057Z,101993.09
2023-01-22T16:45:33.926Z,101991.54
2023-01-22T16:49:19.356Z,101992.65
2023-01-22T16:53:04.184Z,101992.40
2023-01-22T16:56:49.319Z,101996.92
2023-01-22T17:00:34.633Z,102001.45
2023-01-22T17:04:08.155Z,102001.67
2023-01-22T17:07:53.943Z,102001.08
2023-01-22T17:11:38.647Z,102005.19
2023-01-22T17:15:23.621Z,102008.98
2023-01-22T17:19:08.643Z,102004.68
2023-01-22T17:22:46.319Z,102007.34
2023-01-22T17:26:30.677Z,102010.52
2023-01-22T17:30:15.386Z,102017.38
2023-01-22T17:34:00.180Z,102019.46
2023-01-22T17:37:45.187Z,102027.22
2023-01-22T17:41:29.999Z,102038.31
2023-01-22T17:45:14.907Z,102046.95
2023-01-22T17:48:42.365Z,102052.95
2023-01-22T17:52:27.627Z,102052.71
2023-01-22T17:55:50.499Z,102054.28
2023-01-22T17:59:29.326Z,102050.91
2023-01-22T18:03:07.253Z,102055.06
2023-01-22T18:06:52.035Z,102054.21
2023-01-22T18:10:37.060Z,102055.00
2023-01-22T18:14:10.151Z,102053.59
2023-01-22T18:17:55.030Z,102049.94
2023-01-22T18:21:39.982Z,102051.38
2023-01-22T18:25:15.750Z,102051.60
2023-01-22T18:29:00.758Z,102055.69
2023-01-22T18:32:45.693Z,102051.48
2023-01-22T18:36:33.547Z,102050.70
2023-01-22T18:40:19.973Z,102052.85
2023-01-22T18:43:56.940Z,102056.89
2023-01-22T18:47:41.552Z,102061.19
2023-01-22T18:51:19.409Z,102061.52
2023-01-22T18:54:56.554Z,102064.65
2023-01-22T18:58:56.769Z,102062.34
2023-01-22T19:02:34.142Z,102065.72
2023-01-22T19:05:54.717Z,102068.42
2023-01-22T19:09:48.349Z,102063.59
2023-01-22T19:13:33.384Z,102064.70
2023-01-22T19:17:11.609Z,102068.58
2023-01-22T19:20:56.452Z,102070.35
2023-01-22T19:24:41.543Z,102072.43
2023-01-22T19:28:26.488Z,102068.36
2023-01-22T19:32:17.649Z,102074.59
2023-01-22T19:36:02.407Z,102073.66
2023-01-22T19:39:49.984Z,102077.56
2023-01-22T19:43:23.499Z,102079.67
2023-01-22T19:47:08.362Z,102089.64
2023-01-22T19:50:46.541Z,102097.88
2023-01-22T19:54:34.415Z,102091.67
2023-01-22T19:58:19.503Z,102093.22
2023-01-22T20:01:51.366Z,102096.56
2023-01-22T20:05:36.470Z,102095.22
2023-01-22T20:09:21.269Z,102090.00
2023-01-22T20:13:06.291Z,102089.23
2023-01-22T20:16:56.866Z,102098.64
2023-01-22T20:20:27.127Z,102103.58
2023-01-22T20:24:11.930Z,102107.41
2023-01-22T20:27:56.783Z,102106.28
2023-01-22T20:31:41.488Z,102114.91
2023-01-22T20:35:26.372Z,102112.71
2023-01-22T20:39:11.753Z,102116.54
2023-01-22T20:42:56.569Z,102112.45
2023-01-22T20:46:43.811Z,102115.44
2023-01-22T20:50:28.822Z,102113.33
2023-01-22T20:54:06.686Z,102118.29
2023-01-22T20:57:51.511Z,102123.25
2023-01-22T21:01:36.312Z,102127.58
2023-01-22T21:05:21.226Z,102129.45
2023-01-22T21:08:50.198Z,102129.27
2023-01-22T21:12:34.847Z,102134.98
2023-01-22T21:16:19.828Z,102140.57
2023-01-22T21:20:04.583Z,102142.45
2023-01-22T21:23:49.343Z,102146.23
2023-01-22T21:27:34.178Z,102143.68
2023-01-22T21:31:19.205Z,102143.27
2023-01-22T21:34:52.577Z,102136.67
2023-01-22T21:38:37.645Z,102144.23
2023-01-22T21:42:21.167Z,102140.77
2023-01-22T21:46:15.808Z,102143.91
2023-01-22T21:50:00.867Z,102148.54
2023-01-22T21:53:47.277Z,102146.98
2023-01-22T21:57:32.168Z,102142.34
2023-01-22T22:00:58.312Z,102140.41
2023-01-22T22:04:35.732Z,102143.67
2023-01-22T22:08:02.452Z,102143.00
2023-01-22T22:11:52.985Z,102148.08
2023-01-22T22:15:37.799Z,102151.66
2023-01-22T22:19:22.578Z,102158.95
2023-01-22T22:23:07.579Z,102155.52
2023-01-22T22:26:52.414Z,102157.87
2023-01-22T22:30:37.213Z,102154.52
2023-01-22T22:34:21.953Z,102151.84
2023-01-22T22:37:59.248Z,102152.73
2023-01-22T22:41:35.295Z,102158.87
2023-01-22T22:45:28.540Z,102159.05
2023-01-22T22:49:12.375Z,102164.05
2023-01-22T22:52:57.530Z,102177.83
2023-01-22T22:56:44.081Z,102185.14
2023-01-22T23:00:28.990Z,102190.34
2023-01-22T23:04:10.234Z,102190.44
2023-01-22T23:07:55.009Z,102192.38
2023-01-22T23:11:25.665Z,102196.15
2023-01-22T23:15:10.486Z,102201.36
2023-01-22T23:18:55.843Z,102196.60
2023-01-22T23:22:40.909Z,102205.30
2023-01-22T23:26:15.584Z,102213.36
2023-01-22T23:30:01.146Z,102219.05
2023-01-22T23:33:27.303Z,102216.76
2023-01-22T23:37:11.952Z,102219.73
2023-01-22T23:40:56.789Z,102218.27
2023-01-22T23:44:41.616Z,102215.80
2023-01-22T23:48:17.828Z,102214.61
2023-01-22T23:52:02.649Z,102219.48
2023-01-22T23:55:35.956Z,102219.92
2023-01-22T23:59:20.746Z,102222.44
